createdAt,value
2023-01-19T00:54:35.919Z,36.20
2023-01-19T00:55:35.871Z,33.76
2023-01-19T00:56:35.820Z,34.93
2023-01-19T00:57:35.783Z,35.18
2023-01-19T00:58:35.748Z,34.92
2023-01-19T00:59:35.695Z,35.33
2023-01-19T01:00:35.645Z,36.04
2023-01-19T01:01:45.851Z,35.76
2023-01-19T01:03:35.554Z,35.93
2023-01-19T01:04:35.483Z,34.88
2023-01-19T01:05:35.425Z,35.65
2023-01-19T01:06:35.405Z,36.93
2023-01-19T01:07:35.345Z,36.04
2023-01-19T01:08:35.295Z,33.90
2023-01-19T01:09:35.271Z,35.14
2023-01-19T01:10:35.205Z,32.40
2023-01-19T01:11:35.160Z,34.74
2023-01-19T01:12:35.127Z,34.78
2023-01-19T01:13:35.081Z,34.63
2023-01-19T01:14:35.030Z,34.11
2023-01-19T01:15:34.993Z,34.13
2023-01-19T01:16:34.968Z,33.85
2023-01-19T01:17:34.888Z,33.72
2023-01-19T01:18:34.843Z,33.47
2023-01-19T01:19:34.796Z,33.33
2023-01-19T01:20:34.806Z,34.47
2023-01-19T01:21:34.722Z,35.04
2023-01-19T01:22:34.668Z,33.65
2023-01-19T01:23:34.624Z,33.76
2023-01-19T01:24:34.572Z,34.31
2023-01-19T01:25:34.522Z,34.81
2023-01-19T01:26:34.502Z,33.91
2023-01-19T01:27:34.444Z,30.90
2023-01-19T01:28:34.395Z,33.63
2023-01-19T01:29:34.343Z,34.41
2023-01-19T01:30:34.305Z,32.71
2023-01-19T01:31:34.301Z,33.29
2023-01-19T01:32:34.229Z,34.41
2023-01-19T01:33:40.847Z,33.00
2023-01-19T01:34:34.126Z,33.21
2023-01-19T01:35:34.085Z,33.47
2023-01-19T01:36:34.040Z,33.70
2023-01-19T01:37:34.039Z,33.67
2023-01-19T01:38:33.956Z,33.39
2023-01-19T01:39:33.910Z,30.32
2023-01-19T01:40:33.899Z,32.52
2023-01-19T01:41:33.827Z,33.18
2023-01-19T01:42:33.809Z,35.16
2023-01-19T01:43:33.740Z,32.62
2023-01-19T01:44:33.687Z,32.87
2023-01-19T01:45:33.744Z,33.02
2023-01-19T01:46:33.601Z,33.41
2023-01-19T01:47:33.561Z,33.16
2023-01-19T01:48:33.512Z,34.13
2023-01-19T01:49:33.458Z,33.13
2023-01-19T01:50:33.421Z,33.50
2023-01-19T01:51:33.364Z,31.32
2023-01-19T01:52:33.314Z,31.42
2023-01-19T01:53:33.267Z,32.54
2023-01-19T01:54:33.233Z,31.75
2023-01-19T01:55:33.171Z,29.49
2023-01-19T01:56:33.124Z,29.28
2023-01-19T01:57:33.076Z,33.01
2023-01-19T01:58:33.032Z,33.78
2023-01-19T01:59:32.981Z,30.16
2023-01-19T02:00:32.933Z,31.49
2023-01-19T02:01:32.997Z,29.48
2023-01-19T02:02:32.837Z,28.72
2023-01-19T02:03:32.839Z,31.13
2023-01-19T02:04:32.743Z,28.57
2023-01-19T02:05:32.702Z,27.75
2023-01-19T02:06:32.669Z,30.12
2023-01-19T02:07:32.607Z,29.79
2023-01-19T02:08:32.570Z,30.86
2023-01-19T02:09:32.525Z,28.37
2023-01-19T02:10:32.494Z,30.60
2023-01-19T02:11:32.441Z,30.28
2023-01-19T02:12:32.404Z,31.45
2023-01-19T02:13:32.357Z,29.14
2023-01-19T02:14:32.325Z,31.69
2023-01-19T02:15:32.274Z,29.80
2023-01-19T02:16:32.290Z,28.76
2023-01-19T02:17:32.192Z,27.13
2023-01-19T02:18:32.161Z,26.33
2023-01-19T02:19:32.104Z,27.69
2023-01-19T02:20:32.061Z,30.84
2023-01-19T02:21:32.028Z,30.48
2023-01-19T02:22:31.984Z,26.90
2023-01-19T02:23:31.946Z,30.71
2023-01-19T02:24:31.902Z,30.37
2023-01-19T02:25:31.860Z,29.81
2023-01-19T02:26:31.824Z,26.95
2023-01-19T02:27:31.779Z,30.70
2023-01-19T02:28:31.778Z,29.19
2023-01-19T02:29:31.695Z,26.61
2023-01-19T02:30:31.711Z,29.05
2023-01-19T02:31:31.609Z,28.14
2023-01-19T02:32:31.584Z,28.38
2023-01-19T02:33:31.534Z,28.52
2023-01-19T02:34:31.485Z,28.75
2023-01-19T02:35:31.436Z,29.06
2023-01-19T02:36:31.406Z,32.08
2023-01-19T02:37:31.354Z,29.10
2023-01-19T02:38:31.323Z,28.89
2023-01-19T02:39:31.271Z,29.61
2023-01-19T02:40:31.223Z,26.77
2023-01-19T02:41:31.181Z,28.36
2023-01-19T02:42:31.139Z,29.10
2023-01-19T02:43:31.106Z,26.50
2023-01-19T02:44:31.058Z,27.33
2023-01-19T02:45:31.008Z,27.51
2023-01-19T02:46:30.964Z,27.21
2023-01-19T02:47:30.922Z,28.29
2023-01-19T02:48:30.900Z,28.53
2023-01-19T02:49:30.851Z,28.37
2023-01-19T02:50:32.113Z,29.33
2023-01-19T02:51:30.773Z,29.40
2023-01-19T02:52:30.733Z,29.46
2023-01-19T02:53:30.689Z,29.79
2023-01-19T02:54:30.677Z,28.52
2023-01-19T02:55:30.613Z,26.96
2023-01-19T02:56:30.570Z,27.64
2023-01-19T02:57:30.535Z,27.80
2023-01-19T02:58:30.500Z,28.20
2023-01-19T02:59:30.467Z,28.13
2023-01-19T03:00:30.431Z,27.85
2023-01-19T03:01:30.501Z,29.04
2023-01-19T03:02:30.350Z,28.87
2023-01-19T03:03:30.298Z,27.06
2023-01-19T03:04:30.264Z,26.97
2023-01-19T03:05:30.227Z,27.35
2023-01-19T03:06:30.174Z,29.45
2023-01-19T03:07:30.144Z,29.36
2023-01-19T03:08:30.109Z,28.19
2023-01-19T03:09:30.066Z,29.18
2023-01-19T03:10:30.029Z,28.27
2023-01-19T03:11:29.997Z,28.11
2023-01-19T03:12:29.937Z,30.68
2023-01-19T03:13:29.904Z,28.16
2023-01-19T03:14:29.856Z,26.46
2023-01-19T03:15:29.856Z,29.12
2023-01-19T03:16:29.805Z,27.94
2023-01-19T03:17:29.726Z,28.48
2023-01-19T03:18:29.680Z,27.40
2023-01-19T03:19:29.650Z,26.18
2023-01-19T03:20:29.611Z,28.01
2023-01-19T03:21:29.576Z,28.90
2023-01-19T03:22:29.572Z,28.75
2023-01-19T03:23:29.533Z,29.15
2023-01-19T03:24:29.494Z,27.39
2023-01-19T03:25:29.444Z,26.86
2023-01-19T03:26:29.403Z,29.49
2023-01-19T03:27:29.383Z,26.69
2023-01-19T03:28:29.376Z,27.94
2023-01-19T03:29:29.320Z,26.85
2023-01-19T03:30:29.257Z,27.88
2023-01-19T03:31:29.221Z,30.00
2023-01-19T03:32:29.192Z,27.97
2023-01-19T03:33:29.161Z,26.25
2023-01-19T03:34:29.115Z,26.35
2023-01-19T03:35:29.081Z,28.65
2023-01-19T03:36:29.050Z,29.14
2023-01-19T03:37:29.007Z,28.53
2023-01-19T03:38:28.974Z,25.38
2023-01-19T03:39:28.984Z,28.52
2023-01-19T03:40:28.933Z,28.89
2023-01-19T03:41:28.864Z,26.08
2023-01-19T03:42:28.835Z,25.68
2023-01-19T03:43:28.799Z,28.62
2023-01-19T03:44:28.758Z,30.25
2023-01-19T03:45:28.713Z,28.44
2023-01-19T03:46:28.739Z,29.09
2023-01-19T03:47:28.636Z,27.43
2023-01-19T03:48:28.591Z,29.43
2023-01-19T03:49:28.579Z,29.16
2023-01-19T03:50:28.532Z,27.55
2023-01-19T03:51:28.500Z,26.31
2023-01-19T03:52:28.452Z,27.40
2023-01-19T03:53:28.400Z,28.98
2023-01-19T03:54:28.363Z,29.19
2023-01-19T03:55:28.329Z,29.32
2023-01-19T03:56:28.274Z,27.97
2023-01-19T03:57:28.241Z,29.21
2023-01-19T03:58:28.191Z,30.30
2023-01-19T03:59:28.153Z,27.66
2023-01-19T04:00:28.188Z,28.01
2023-01-19T04:01:28.231Z,29.49
2023-01-19T04:02:28.116Z,25.00
2023-01-19T04:03:27.999Z,27.14
2023-01-19T04:04:27.952Z,30.95
2023-01-19T04:05:27.920Z,29.70
2023-01-19T04:06:27.877Z,25.90
2023-01-19T04:07:27.842Z,27.16
2023-01-19T04:08:27.803Z,29.14
2023-01-19T04:09:27.772Z,29.35
2023-01-19T04:10:27.735Z,29.38
2023-01-19T04:11:27.685Z,28.57
2023-01-19T04:12:27.641Z,29.20
2023-01-19T04:13:27.599Z,26.72
2023-01-19T04:14:27.560Z,29.37
2023-01-19T04:15:27.533Z,29.52
2023-01-19T04:16:27.534Z,29.38
2023-01-19T04:17:27.451Z,26.82
2023-01-19T04:18:27.406Z,25.55
2023-01-19T04:19:27.369Z,28.27
2023-01-19T04:20:27.321Z,29.21
2023-01-19T04:21:27.283Z,26.78
2023-01-19T04:22:27.247Z,28.08
2023-01-19T04:23:27.224Z,30.73
2023-01-19T04:24:27.169Z,30.14
2023-01-19T04:25:27.122Z,26.46
2023-01-19T04:26:27.076Z,29.10
2023-01-19T04:27:27.042Z,29.70
2023-01-19T04:28:26.993Z,27.26
2023-01-19T04:29:26.949Z,30.21
2023-01-19T04:30:26.894Z,28.62
2023-01-19T04:31:26.859Z,28.47
2023-01-19T04:32:26.810Z,31.46
2023-01-19T04:33:26.763Z,26.85
2023-01-19T04:34:26.732Z,27.37
2023-01-19T04:35:26.689Z,26.51
2023-01-19T04:36:26.624Z,30.02
2023-01-19T04:37:26.600Z,29.43
2023-01-19T04:38:26.579Z,28.83
2023-01-19T04:39:26.522Z,28.92
2023-01-19T04:40:26.509Z,26.67
2023-01-19T04:41:26.437Z,29.56
2023-01-19T04:42:26.402Z,26.72
2023-01-19T04:43:26.365Z,27.65
2023-01-19T04:44:26.320Z,30.66
2023-01-19T04:45:26.290Z,29.20
2023-01-19T04:46:26.269Z,26.42
2023-01-19T04:47:26.206Z,27.90
2023-01-19T04:48:26.163Z,28.24
2023-01-19T04:49:26.136Z,25.95
2023-01-19T04:50:26.092Z,26.22
2023-01-19T04:51:26.064Z,28.34
2023-01-19T04:52:26.022Z,29.06
2023-01-19T04:53:25.995Z,27.68
2023-01-19T04:54:26.030Z,27.74
2023-01-19T04:55:25.919Z,28.70
2023-01-19T04:56:25.891Z,27.31
2023-01-19T04:57:25.838Z,27.86
2023-01-19T04:58:25.809Z,29.08
2023-01-19T04:59:25.767Z,29.18
2023-01-19T05:00:25.735Z,29.20
2023-01-19T05:01:25.784Z,28.12
2023-01-19T05:02:25.658Z,28.70
2023-01-19T05:03:26.607Z,26.19
2023-01-19T05:04:25.599Z,26.40
2023-01-19T05:05:25.555Z,28.08
2023-01-19T05:06:25.530Z,28.26
2023-01-19T05:07:25.501Z,28.59
2023-01-19T05:08:25.452Z,25.72
2023-01-19T05:09:25.413Z,28.58
2023-01-19T05:10:25.378Z,30.80
2023-01-19T05:11:25.346Z,26.99
2023-01-19T05:12:25.309Z,26.30
2023-01-19T05:13:25.277Z,28.70
2023-01-19T05:14:25.244Z,29.26
2023-01-19T05:15:25.207Z,28.72
2023-01-19T05:16:25.263Z,29.23
2023-01-19T05:17:25.124Z,26.82
2023-01-19T05:18:25.093Z,25.00
2023-01-19T05:19:25.103Z,27.12
2023-01-19T05:20:25.021Z,26.14
2023-01-19T05:21:24.986Z,29.69
2023-01-19T05:22:24.946Z,27.83
2023-01-19T05:23:24.917Z,29.65
2023-01-19T05:24:24.878Z,28.38
2023-01-19T05:25:24.835Z,29.54
2023-01-19T05:26:24.797Z,28.86
2023-01-19T05:27:24.760Z,29.02
2023-01-19T05:28:24.719Z,29.21
2023-01-19T05:29:24.686Z,29.62
2023-01-19T05:30:24.648Z,28.74
2023-01-19T05:31:24.709Z,27.75
2023-01-19T05:32:24.563Z,25.92
2023-01-19T05:33:24.520Z,28.67
2023-01-19T05:34:24.494Z,29.38
2023-01-19T05:35:35.208Z,28.78
2023-01-19T05:36:25.411Z,29.03
2023-01-19T05:37:24.376Z,29.18
2023-01-19T05:38:34.482Z,29.23
2023-01-19T05:39:25.299Z,29.00
2023-01-19T05:40:24.260Z,29.29
2023-01-19T05:41:24.231Z,29.57
2023-01-19T05:42:24.185Z,28.91
2023-01-19T05:43:24.144Z,29.36
2023-01-19T05:44:24.104Z,29.34
2023-01-19T05:45:24.071Z,29.30
2023-01-19T05:46:24.025Z,29.55
2023-01-19T05:47:23.985Z,30.03
2023-01-19T05:48:23.950Z,27.97
2023-01-19T05:49:23.900Z,28.13
2023-01-19T05:50:23.865Z,28.29
2023-01-19T05:51:23.832Z,27.12
2023-01-19T05:52:23.775Z,27.24
2023-01-19T05:53:23.738Z,29.16
2023-01-19T05:54:23.698Z,28.92
2023-01-19T05:55:23.665Z,25.80
2023-01-19T05:56:23.635Z,27.24
2023-01-19T05:57:23.580Z,29.21
2023-01-19T05:58:23.541Z,26.03
2023-01-19T05:59:23.500Z,26.40
2023-01-19T06:00:23.455Z,26.95
2023-01-19T06:01:23.458Z,28.24
2023-01-19T06:02:23.424Z,30.00
2023-01-19T06:03:23.398Z,29.58
2023-01-19T06:04:23.281Z,29.22
2023-01-19T06:05:23.241Z,29.31
2023-01-19T06:06:23.207Z,29.45
2023-01-19T06:07:24.381Z,28.38
2023-01-19T06:08:23.124Z,28.96
2023-01-19T06:09:23.085Z,28.02
2023-01-19T06:10:23.046Z,27.60
2023-01-19T06:11:23.031Z,27.82
2023-01-19T06:12:22.974Z,28.06
2023-01-19T06:13:22.944Z,28.97
2023-01-19T06:14:22.885Z,30.34
2023-01-19T06:15:22.850Z,32.05
2023-01-19T06:16:22.826Z,28.56
2023-01-19T06:17:22.780Z,28.70
2023-01-19T06:18:22.744Z,28.94
2023-01-19T06:19:22.694Z,29.35
2023-01-19T06:20:22.656Z,29.35
2023-01-19T06:21:22.619Z,29.51
2023-01-19T06:22:22.582Z,28.32
2023-01-19T06:23:22.550Z,29.50
2023-01-19T06:24:22.492Z,29.99
2023-01-19T06:25:22.449Z,27.56
2023-01-19T06:26:22.413Z,27.01
2023-01-19T06:27:22.384Z,29.08
2023-01-19T06:28:22.936Z,28.52
2023-01-19T06:29:22.306Z,27.66
2023-01-19T06:30:22.299Z,27.63
2023-01-19T06:31:22.288Z,25.86
2023-01-19T06:32:22.188Z,27.74
2023-01-19T06:33:22.133Z,27.55
2023-01-19T06:34:22.088Z,28.24
2023-01-19T06:35:22.059Z,28.06
2023-01-19T06:36:22.002Z,27.53
2023-01-19T06:37:21.975Z,31.17
2023-01-19T06:38:21.951Z,30.75
2023-01-19T06:39:21.877Z,30.50
2023-01-19T06:40:21.838Z,31.12
2023-01-19T06:41:21.802Z,29.64
2023-01-19T06:42:21.742Z,30.52
2023-01-19T06:43:21.705Z,32.38
2023-01-19T06:44:21.661Z,30.12
2023-01-19T06:45:21.623Z,30.17
2023-01-19T06:46:21.593Z,30.37
2023-01-19T06:47:21.551Z,30.87
2023-01-19T06:48:21.507Z,30.37
2023-01-19T06:49:21.464Z,30.55
2023-01-19T06:50:21.431Z,32.49
2023-01-19T06:51:21.415Z,32.20
2023-01-19T06:52:21.360Z,36.30
2023-01-19T06:53:21.303Z,35.99
2023-01-19T06:54:21.268Z,39.63
2023-01-19T06:55:21.217Z,41.13
2023-01-19T06:56:21.195Z,49.99
2023-01-19T06:57:21.137Z,55.29
2023-01-19T06:58:21.094Z,63.60
2023-01-19T06:59:21.040Z,69.71
2023-01-19T07:00:21.001Z,70.12
2023-01-19T07:01:21.066Z,71.81
2023-01-19T07:02:26.997Z,76.55
2023-01-19T07:03:21.983Z,70.83
2023-01-19T07:04:20.821Z,75.41
2023-01-19T07:05:20.770Z,84.34
2023-01-19T07:06:20.780Z,104.11
2023-01-19T07:07:20.693Z,127.74
2023-01-19T07:08:20.625Z,134.20
2023-01-19T07:09:20.578Z,145.55
2023-01-19T07:10:20.518Z,156.27
2023-01-19T07:11:26.218Z,156.94
2023-01-19T07:12:21.480Z,157.44
2023-01-19T07:13:20.376Z,161.33
2023-01-19T07:14:20.322Z,169.03
2023-01-19T07:15:20.279Z,177.96
2023-01-19T07:16:20.245Z,194.44
2023-01-19T07:17:20.173Z,157.95
2023-01-19T07:18:20.124Z,163.29
2023-01-19T07:19:20.091Z,173.27
2023-01-19T07:20:20.028Z,190.45
2023-01-19T07:21:19.993Z,209.98
2023-01-19T07:22:19.952Z,216.11
2023-01-19T07:23:19.881Z,216.49
2023-01-19T07:24:19.851Z,216.62
2023-01-19T07:25:19.784Z,218.31
2023-01-19T07:26:19.750Z,216.93
2023-01-19T07:27:19.720Z,219.82
2023-01-19T07:28:19.657Z,224.39
2023-01-19T07:29:19.595Z,231.73
2023-01-19T07:30:19.551Z,241.35
2023-01-19T07:31:19.636Z,241.40
2023-01-19T07:32:19.466Z,244.04
2023-01-19T07:33:19.425Z,244.51
2023-01-19T07:34:19.355Z,244.78
2023-01-19T07:35:19.297Z,245.46
2023-01-19T07:36:19.252Z,247.48
2023-01-19T07:37:19.205Z,251.87
2023-01-19T07:38:19.155Z,255.46
2023-01-19T07:39:19.098Z,249.67
2023-01-19T07:40:19.088Z,249.80
2023-01-19T07:41:19.005Z,250.40
2023-01-19T07:42:18.992Z,254.39
2023-01-19T07:43:18.901Z,258.60
2023-01-19T07:44:18.859Z,254.84
2023-01-19T07:45:18.812Z,240.14
2023-01-19T07:46:18.802Z,223.21
2023-01-19T07:47:18.692Z,194.21
2023-01-19T07:48:18.659Z,161.94
2023-01-19T07:49:18.603Z,112.91
2023-01-19T07:50:18.567Z,100.36
2023-01-19T07:51:18.504Z,104.77
2023-01-19T07:52:18.472Z,98.06
2023-01-19T07:53:18.449Z,46.53
2023-01-19T07:54:18.365Z,38.68
2023-01-19T07:55:18.331Z,6.91
2023-01-19T07:56:18.299Z,51.09
2023-01-19T07:57:18.231Z,41.36
2023-01-19T07:58:18.199Z,0.00
2023-01-19T07:59:18.168Z,0.00
2023-01-19T08:00:18.131Z,0.00
2023-01-19T08:01:18.179Z,0.00
2023-01-19T08:02:18.170Z,0.00
2023-01-19T08:03:18.015Z,16.57
2023-01-19T08:04:17.993Z,25.00
2023-01-19T08:05:17.936Z,25.81
2023-01-19T08:06:17.953Z,25.65
2023-01-19T08:07:17.873Z,0.00
2023-01-19T08:08:17.847Z,0.00
2023-01-19T08:09:17.808Z,0.00
2023-01-19T08:10:17.771Z,0.00
2023-01-19T08:11:17.738Z,13.55
2023-01-19T08:12:17.751Z,52.72
2023-01-19T08:13:17.678Z,69.62
2023-01-19T08:14:17.638Z,77.65
2023-01-19T08:15:17.582Z,88.96
2023-01-19T08:16:17.549Z,96.69
2023-01-19T08:17:17.505Z,100.02
2023-01-19T08:18:17.472Z,101.97
2023-01-19T08:19:17.440Z,108.13
2023-01-19T08:20:17.388Z,110.65
2023-01-19T08:21:17.342Z,110.36
2023-01-19T08:22:17.311Z,116.78
2023-01-19T08:23:17.278Z,120.07
2023-01-19T08:24:17.282Z,123.85
2023-01-19T08:25:17.207Z,126.20
2023-01-19T08:26:17.156Z,130.15
2023-01-19T08:27:17.113Z,129.11
2023-01-19T08:28:17.127Z,130.09
2023-01-19T08:29:17.071Z,132.62
2023-01-19T08:30:16.989Z,133.77
2023-01-19T08:31:21.083Z,137.55
2023-01-19T08:32:18.089Z,137.79
2023-01-19T08:33:16.857Z,138.59
2023-01-19T08:34:16.826Z,139.97
2023-01-19T08:35:16.769Z,142.93
2023-01-19T08:36:16.721Z,146.05
2023-01-19T08:37:16.696Z,148.89
2023-01-19T08:38:16.627Z,156.81
2023-01-19T08:39:16.587Z,157.05
2023-01-19T08:40:16.557Z,161.01
2023-01-19T08:41:16.512Z,160.32
2023-01-19T08:42:16.455Z,163.34
2023-01-19T08:43:16.402Z,163.64
2023-01-19T08:44:16.366Z,164.82
2023-01-19T08:45:16.458Z,163.95
2023-01-19T08:46:16.323Z,166.18
2023-01-19T08:47:16.257Z,169.81
2023-01-19T08:48:16.222Z,175.16
2023-01-19T08:49:16.163Z,181.54
2023-01-19T08:50:16.133Z,183.86
2023-01-19T08:51:16.060Z,184.27
2023-01-19T08:52:16.001Z,184.01
2023-01-19T08:53:15.958Z,182.09
2023-01-19T08:54:18.269Z,184.65
2023-01-19T08:55:16.100Z,181.96
2023-01-19T08:56:16.075Z,182.39
2023-01-19T08:57:16.017Z,182.28
2023-01-19T08:58:15.997Z,179.88
2023-01-19T08:59:15.940Z,180.22
2023-01-19T09:00:15.901Z,180.25
2023-01-19T09:01:15.947Z,178.76
2023-01-19T09:02:15.984Z,178.44
2023-01-19T09:03:15.791Z,176.31
2023-01-19T09:04:15.842Z,176.14
2023-01-19T09:05:15.683Z,173.51
2023-01-19T09:06:15.637Z,173.14
2023-01-19T09:07:15.615Z,171.35
2023-01-19T09:08:15.580Z,170.89
2023-01-19T09:09:15.516Z,170.12
2023-01-19T09:10:15.482Z,169.61
2023-01-19T09:11:15.440Z,168.04
2023-01-19T09:12:15.382Z,167.69
2023-01-19T09:13:15.347Z,166.88
2023-01-19T09:14:15.284Z,164.06
2023-01-19T09:15:15.258Z,165.89
2023-01-19T09:16:15.240Z,163.21
2023-01-19T09:17:15.151Z,163.03
2023-01-19T09:19:15.073Z,161.63
2023-01-19T09:20:15.052Z,148.95
2023-01-19T09:21:15.027Z,127.91
2023-01-19T09:22:14.932Z,114.54
2023-01-19T09:23:14.878Z,102.54
2023-01-19T09:24:14.818Z,83.93
2023-01-19T09:25:14.816Z,73.33
2023-01-19T09:26:14.747Z,66.14
2023-01-19T09:27:14.696Z,61.63
2023-01-19T09:28:14.717Z,51.31
2023-01-19T09:29:14.627Z,46.34
2023-01-19T09:30:14.584Z,34.92
2023-01-19T09:31:14.659Z,45.89
2023-01-19T09:32:14.490Z,63.91
2023-01-19T09:33:14.453Z,84.67
2023-01-19T09:34:14.421Z,91.28
2023-01-19T09:35:14.357Z,93.68
2023-01-19T09:36:14.375Z,98.12
2023-01-19T09:37:14.260Z,99.06
2023-01-19T09:38:14.199Z,99.98
2023-01-19T09:39:14.161Z,89.59
2023-01-19T09:40:14.125Z,64.68
2023-01-19T09:41:14.111Z,64.91
2023-01-19T09:42:14.024Z,65.57
2023-01-19T09:43:13.992Z,69.69
2023-01-19T09:44:14.380Z,77.03
2023-01-19T09:45:13.966Z,88.19
2023-01-19T09:46:13.897Z,98.40
2023-01-19T09:47:13.801Z,93.45
2023-01-19T09:48:13.759Z,84.18
2023-01-19T09:49:13.727Z,54.23
2023-01-19T09:50:13.683Z,75.46
2023-01-19T09:51:13.626Z,84.49
2023-01-19T09:52:13.588Z,91.01
2023-01-19T09:53:13.535Z,89.45
2023-01-19T09:54:13.539Z,96.72
2023-01-19T09:55:13.472Z,102.43
2023-01-19T09:56:13.409Z,104.56
2023-01-19T09:57:13.365Z,108.51
2023-01-19T09:58:13.304Z,130.30
2023-01-19T09:59:13.261Z,139.15
2023-01-19T10:00:13.265Z,140.55
2023-01-19T10:01:13.330Z,139.37
2023-01-19T10:02:13.142Z,143.10
2023-01-19T10:03:13.141Z,148.11
2023-01-19T10:04:13.041Z,146.48
2023-01-19T10:05:13.001Z,151.01
2023-01-19T10:06:12.935Z,152.61
2023-01-19T10:07:12.900Z,155.90
2023-01-19T10:08:12.868Z,156.25
2023-01-19T10:09:12.802Z,157.79
2023-01-19T10:10:12.733Z,160.53
2023-01-19T10:11:12.703Z,166.77
2023-01-19T10:12:12.642Z,174.25
2023-01-19T10:13:12.607Z,180.65
2023-01-19T10:14:12.565Z,183.29
2023-01-19T10:15:12.481Z,186.69
2023-01-19T10:16:12.462Z,189.95
2023-01-19T10:17:12.382Z,193.70
2023-01-19T10:18:12.338Z,196.08
2023-01-19T10:19:12.278Z,200.15
2023-01-19T10:20:12.233Z,200.63
2023-01-19T10:21:12.193Z,202.86
2023-01-19T10:22:12.140Z,206.84
2023-01-19T10:23:12.088Z,211.68
2023-01-19T10:24:12.043Z,219.97
2023-01-19T10:25:11.984Z,220.79
2023-01-19T10:26:11.943Z,222.74
2023-01-19T10:27:11.925Z,225.56
2023-01-19T10:28:11.902Z,226.55
2023-01-19T10:29:11.921Z,226.77
2023-01-19T10:30:11.743Z,227.04
2023-01-19T10:31:11.835Z,228.04
2023-01-19T10:32:11.658Z,230.34
2023-01-19T10:33:11.591Z,234.41
2023-01-19T10:34:11.523Z,233.20
2023-01-19T10:35:11.520Z,234.36
2023-01-19T10:36:11.407Z,251.35
2023-01-19T10:37:11.358Z,249.12
2023-01-19T10:38:11.276Z,242.33
2023-01-19T10:39:11.218Z,237.08
2023-01-19T10:40:11.145Z,237.46
2023-01-19T10:41:11.088Z,234.52
2023-01-19T10:42:11.012Z,232.48
2023-01-19T10:43:10.956Z,228.36
2023-01-19T10:44:10.916Z,234.73
2023-01-19T10:45:10.824Z,236.50
2023-01-19T10:46:10.815Z,125.94
2023-01-19T10:47:10.764Z,0.00
2023-01-19T10:48:10.647Z,0.00
2023-01-19T10:49:10.604Z,0.00
2023-01-19T10:50:10.557Z,0.00
2023-01-19T10:51:10.555Z,0.00
2023-01-19T10:52:10.499Z,0.00
2023-01-19T10:53:10.483Z,0.00
2023-01-19T10:54:10.483Z,0.00
2023-01-19T10:55:10.445Z,0.00
2023-01-19T10:56:10.485Z,0.00
2023-01-19T10:57:10.501Z,0.00
2023-01-19T10:58:10.391Z,0.00
2023-01-19T10:59:10.407Z,0.00
2023-01-19T11:00:10.368Z,0.00
2023-01-19T11:01:10.482Z,0.00
2023-01-19T11:02:10.608Z,0.00
2023-01-19T11:03:10.501Z,5.32
2023-01-19T11:04:10.376Z,19.69
2023-01-19T11:05:10.359Z,22.75
2023-01-19T11:06:10.369Z,21.11
2023-01-19T11:07:10.365Z,21.67
2023-01-19T11:08:10.371Z,43.84
2023-01-19T11:09:10.379Z,59.62
2023-01-19T11:10:10.357Z,85.31
2023-01-19T11:11:10.348Z,103.39
2023-01-19T11:12:10.345Z,120.88
2023-01-19T11:13:10.347Z,129.13
2023-01-19T11:14:10.317Z,134.00
2023-01-19T11:15:10.318Z,135.33
2023-01-19T11:16:12.347Z,138.03
2023-01-19T11:17:10.262Z,138.14
2023-01-19T11:18:10.226Z,139.86
2023-01-19T11:19:10.221Z,146.26
2023-01-19T11:20:10.178Z,153.29
2023-01-19T11:21:10.154Z,167.15
2023-01-19T11:22:10.124Z,171.19
2023-01-19T11:23:10.085Z,171.34
2023-01-19T11:24:10.061Z,172.29
2023-01-19T11:25:10.013Z,174.55
2023-01-19T11:26:09.969Z,178.18
2023-01-19T11:27:09.932Z,184.23
2023-01-19T11:28:09.896Z,186.34
2023-01-19T11:29:09.866Z,190.28
2023-01-19T11:30:09.849Z,194.01
2023-01-19T11:31:09.829Z,214.11
2023-01-19T11:32:09.780Z,215.85
2023-01-19T11:33:09.685Z,216.67
2023-01-19T11:34:09.635Z,217.26
2023-01-19T11:35:09.591Z,217.57
2023-01-19T11:36:09.546Z,219.26
2023-01-19T11:37:09.499Z,215.59
2023-01-19T11:38:09.461Z,214.83
2023-01-19T11:39:09.402Z,216.54
2023-01-19T11:40:09.362Z,217.16
2023-01-19T11:41:09.322Z,174.89
2023-01-19T11:42:09.266Z,134.03
2023-01-19T11:43:09.225Z,93.27
2023-01-19T11:44:09.208Z,69.84
2023-01-19T11:45:09.159Z,71.07
2023-01-19T11:46:09.180Z,77.87
2023-01-19T11:47:09.107Z,107.31
2023-01-19T11:48:09.094Z,123.21
2023-01-19T11:49:09.061Z,123.89
2023-01-19T11:50:09.032Z,127.00
2023-01-19T11:51:09.001Z,137.77
2023-01-19T11:52:08.976Z,154.07
2023-01-19T11:53:08.938Z,183.01
2023-01-19T11:54:08.904Z,190.11
2023-01-19T11:55:08.873Z,185.82
2023-01-19T11:56:08.839Z,190.00
2023-01-19T11:57:08.779Z,190.43
2023-01-19T11:58:08.742Z,194.19
2023-01-19T11:59:08.703Z,197.70
2023-01-19T12:00:08.755Z,199.91
2023-01-19T12:01:08.631Z,203.09
2023-01-19T12:02:08.652Z,204.11
2023-01-19T12:03:08.599Z,203.93
2023-01-19T12:04:08.509Z,205.08
2023-01-19T12:05:08.488Z,205.94
2023-01-19T12:06:08.423Z,206.88
2023-01-19T12:07:08.377Z,207.17
2023-01-19T12:08:08.699Z,207.25
2023-01-19T12:09:08.282Z,208.71
2023-01-19T12:10:08.250Z,206.85
2023-01-19T12:11:08.230Z,207.64
2023-01-19T12:12:08.205Z,206.95
2023-01-19T12:13:08.113Z,205.18
2023-01-19T12:14:08.108Z,199.56
2023-01-19T12:15:08.064Z,175.42
2023-01-19T12:16:07.997Z,167.73
2023-01-19T12:17:07.958Z,159.19
2023-01-19T12:18:07.927Z,160.87
2023-01-19T12:19:07.880Z,139.21
2023-01-19T12:20:07.855Z,129.06
2023-01-19T12:21:07.818Z,120.25
2023-01-19T12:22:07.759Z,116.85
2023-01-19T12:23:07.736Z,129.60
2023-01-19T12:24:07.712Z,152.13
2023-01-19T12:25:07.631Z,163.59
2023-01-19T12:26:07.603Z,170.36
2023-01-19T12:27:07.661Z,174.46
2023-01-19T12:28:07.546Z,170.39
2023-01-19T12:29:07.455Z,176.17
2023-01-19T12:30:07.427Z,179.09
2023-01-19T12:31:07.410Z,181.21
2023-01-19T12:32:07.325Z,181.83
2023-01-19T12:33:07.270Z,184.90
2023-01-19T12:34:07.229Z,187.78
2023-01-19T12:35:07.172Z,189.11
2023-01-19T12:36:07.124Z,190.68
2023-01-19T12:37:07.103Z,191.92
2023-01-19T12:38:07.033Z,193.61
2023-01-19T12:39:06.990Z,196.30
2023-01-19T12:40:06.940Z,197.16
2023-01-19T12:41:06.894Z,199.21
2023-01-19T12:42:06.863Z,201.56
2023-01-19T12:43:06.795Z,201.05
2023-01-19T12:44:06.843Z,205.07
2023-01-19T12:45:06.704Z,205.62
2023-01-19T12:46:06.677Z,206.37
2023-01-19T12:47:06.607Z,206.66
2023-01-19T12:48:06.567Z,206.71
2023-01-19T12:49:06.516Z,206.89
2023-01-19T12:50:06.458Z,206.93
2023-01-19T12:51:06.413Z,206.68
2023-01-19T12:52:06.365Z,207.01
2023-01-19T12:53:06.334Z,207.50
2023-01-19T12:54:06.744Z,206.76
2023-01-19T12:55:06.200Z,206.05
2023-01-19T12:56:06.173Z,205.62
2023-01-19T12:57:06.098Z,203.32
2023-01-19T12:58:06.084Z,205.79
2023-01-19T12:59:06.007Z,204.89
2023-01-19T13:00:05.966Z,205.35
2023-01-19T13:01:05.971Z,205.42
2023-01-19T13:02:05.927Z,203.71
2023-01-19T13:03:05.809Z,200.48
2023-01-19T13:04:06.183Z,203.10
2023-01-19T13:05:05.706Z,205.27
2023-01-19T13:06:05.641Z,204.06
2023-01-19T13:07:05.618Z,202.92
2023-01-19T13:08:05.564Z,199.17
2023-01-19T13:09:05.503Z,199.68
2023-01-19T13:10:05.442Z,200.10
2023-01-19T13:11:05.414Z,201.99
2023-01-19T13:12:05.350Z,200.51
2023-01-19T13:13:05.303Z,199.47
2023-01-19T13:14:05.253Z,197.36
2023-01-19T13:15:05.212Z,197.46
2023-01-19T13:16:05.189Z,199.96
2023-01-19T13:17:05.110Z,200.97
2023-01-19T13:18:05.071Z,201.04
2023-01-19T13:19:05.021Z,198.68
2023-01-19T13:20:05.001Z,195.90
2023-01-19T13:21:04.947Z,198.48
2023-01-19T13:22:04.885Z,198.79
2023-01-19T13:23:04.850Z,199.60
2023-01-19T13:24:04.786Z,199.92
2023-01-19T13:25:04.745Z,194.34
2023-01-19T13:26:04.683Z,192.19
2023-01-19T13:27:04.639Z,195.53
2023-01-19T13:28:04.589Z,197.23
2023-01-19T13:29:04.541Z,196.84
2023-01-19T13:30:04.488Z,195.84
2023-01-19T13:31:04.518Z,190.11
2023-01-19T13:32:04.394Z,191.70
2023-01-19T13:33:04.342Z,195.22
2023-01-19T13:34:04.295Z,195.28
2023-01-19T13:35:04.242Z,195.58
2023-01-19T13:36:04.205Z,193.63
2023-01-19T13:37:04.144Z,188.59
2023-01-19T13:38:04.098Z,190.68
2023-01-19T13:39:04.065Z,194.00